createdAt,value
2023-02-02T00:00:10.769Z,7.13
2023-02-02T00:01:29.900Z,7.12
2023-02-02T00:02:31.818Z,7.14
2023-02-02T00:03:34.569Z,7.14
2023-02-02T00:04:37.243Z,7.14
2023-02-02T00:05:39.855Z,7.16
2023-02-02T00:06:42.553Z,7.15
2023-02-02T00:07:45.187Z,7.15
2023-02-02T00:08:47.875Z,7.16
2023-02-02T00:09:50.539Z,7.16
2023-02-02T00:11:43.405Z,7.16
2023-02-02T00:12:45.402Z,7.15
2023-02-02T00:13:47.940Z,7.13
2023-02-02T00:14:50.581Z,7.1
2023-02-02T00:15:56.954Z,7.08
2023-02-02T00:16:59.469Z,7.06
2023-02-02T00:18:02.148Z,7.06
2023-02-02T00:19:04.777Z,7.06
2023-02-02T00:20:07.480Z,7.06
2023-02-02T00:21:33.185Z,7.03
2023-02-02T00:22:35.881Z,7
2023-02-02T00:23:38.461Z,7
2023-02-02T00:24:48.580Z,6.99
2023-02-02T00:25:50.914Z,6.99
2023-02-02T00:26:53.968Z,6.99
2023-02-02T00:28:00.269Z,6.99
2023-02-02T00:29:02.679Z,6.98
2023-02-02T00:30:12.813Z,7
2023-02-02T00:31:15.227Z,7
2023-02-02T00:32:55.920Z,6.98
2023-02-02T00:34:05.284Z,6.97
2023-02-02T00:35:07.504Z,6.97
2023-02-02T00:36:21.728Z,6.97
2023-02-02T00:37:24.098Z,6.99
2023-02-02T00:38:26.770Z,6.97
2023-02-02T00:39:29.357Z,6.97
2023-02-02T00:40:32.045Z,6.97
2023-02-02T00:41:34.663Z,6.97
2023-02-02T00:42:37.325Z,6.98
2023-02-02T00:43:39.973Z,6.98
2023-02-02T00:44:42.719Z,6.98
2023-02-02T00:45:49.161Z,6.96
2023-02-02T00:46:51.742Z,6.97
2023-02-02T00:47:54.421Z,6.97
2023-02-02T00:48:57.051Z,6.98
2023-02-02T00:49:59.912Z,6.97
2023-02-02T00:51:02.610Z,6.96
2023-02-02T00:52:05.298Z,6.96
2023-02-02T00:53:08.088Z,6.96
2023-02-02T00:54:10.777Z,6.96
2023-02-02T00:55:13.434Z,6.94
2023-02-02T00:56:16.088Z,6.95
2023-02-02T00:57:22.270Z,6.95
2023-02-02T00:58:24.734Z,6.96
2023-02-02T00:59:27.394Z,6.97
2023-02-02T01:00:30.016Z,6.96
2023-02-02T01:01:32.694Z,6.97
2023-02-02T01:02:35.425Z,6.97
2023-02-02T01:03:38.114Z,6.98
2023-02-02T01:04:40.769Z,6.99
2023-02-02T01:05:43.422Z,7.01
2023-02-02T01:06:46.110Z,7.01
2023-02-02T01:07:48.805Z,7.04
2023-02-02T01:08:51.970Z,7.03
2023-02-02T01:09:54.688Z,7.04
2023-02-02T01:10:57.345Z,7.06
2023-02-02T01:11:59.997Z,7.05
2023-02-02T01:13:02.737Z,7.08
2023-02-02T01:14:05.472Z,7.09
2023-02-02T01:15:08.157Z,7.1
2023-02-02T01:16:10.994Z,7.1
2023-02-02T01:17:13.732Z,7.1
2023-02-02T01:18:16.969Z,7.11
2023-02-02T01:19:19.605Z,7.12
2023-02-02T01:20:37.238Z,7.12
2023-02-02T01:21:39.365Z,7.11
2023-02-02T01:22:41.929Z,7.11
2023-02-02T01:23:44.601Z,7.12
2023-02-02T01:24:47.292Z,7.12
2023-02-02T01:25:57.515Z,7.11
2023-02-02T01:26:59.783Z,7.1
2023-02-02T01:28:02.432Z,7.1
2023-02-02T01:29:05.096Z,7.11
2023-02-02T01:30:07.770Z,7.11
2023-02-02T01:31:14.202Z,7.13
2023-02-02T01:32:16.843Z,7.13
2023-02-02T01:33:19.516Z,7.13
2023-02-02T01:34:25.735Z,7.14
2023-02-02T01:35:28.202Z,7.13
2023-02-02T01:36:30.856Z,7.11
2023-02-02T01:37:33.531Z,7.09
2023-02-02T01:38:36.258Z,7.11
2023-02-02T01:39:38.925Z,7.11
2023-02-02T01:40:45.138Z,7.12
2023-02-02T01:41:47.575Z,7.12
2023-02-02T01:42:50.247Z,7.11
2023-02-02T01:43:53.117Z,7.11
2023-02-02T01:44:55.859Z,7.12
2023-02-02T01:45:58.755Z,7.11
2023-02-02T01:47:01.575Z,7.11
2023-02-02T01:48:04.255Z,7.1
2023-02-02T01:49:06.970Z,7.08
2023-02-02T01:50:09.714Z,7.09
2023-02-02T01:51:12.416Z,7.1
2023-02-02T01:52:15.068Z,7.12
2023-02-02T01:53:17.736Z,7.12
2023-02-02T01:54:23.916Z,7.13
2023-02-02T01:55:27.093Z,7.12
2023-02-02T01:56:29.731Z,7.13
2023-02-02T01:57:32.453Z,7.1
2023-02-02T01:58:35.119Z,7.08
2023-02-02T01:59:37.729Z,7.08
2023-02-02T02:00:40.426Z,7.1
2023-02-02T02:01:43.134Z,7.11
2023-02-02T02:02:45.918Z,7.09
2023-02-02T02:03:48.889Z,7.1
2023-02-02T02:04:51.550Z,7.11
2023-02-02T02:05:54.423Z,7.11
2023-02-02T02:06:57.215Z,7.1
2023-02-02T02:07:59.865Z,7.09
2023-02-02T02:09:02.564Z,7.09
2023-02-02T02:10:12.712Z,7.11
2023-02-02T02:11:15.019Z,7.11
2023-02-02T02:12:17.681Z,7.11
2023-02-02T02:13:20.362Z,7.11
2023-02-02T02:14:34.569Z,7.11
2023-02-02T02:15:36.744Z,7.1
2023-02-02T02:16:39.662Z,7.1
2023-02-02T02:17:42.528Z,7.1
2023-02-02T02:18:45.170Z,7.1
2023-02-02T02:19:48.028Z,7.1
2023-02-02T02:20:50.701Z,7.1
2023-02-02T02:21:53.441Z,7.12
2023-02-02T02:22:56.069Z,7.11
2023-02-02T02:23:59.304Z,7.11
2023-02-02T02:25:01.966Z,7.09
2023-02-02T02:26:04.643Z,7.1
2023-02-02T02:27:07.315Z,7.09
2023-02-02T02:28:09.932Z,7.1
2023-02-02T02:29:12.656Z,7.1
2023-02-02T02:30:18.798Z,7.1
2023-02-02T02:31:21.675Z,7.1
2023-02-02T02:32:25.101Z,7.11
2023-02-02T02:33:27.721Z,7.11
2023-02-02T02:34:33.882Z,7.11
2023-02-02T02:35:36.292Z,7.1
2023-02-02T02:36:38.948Z,7.1
2023-02-02T02:37:41.717Z,7.11
2023-02-02T02:38:47.957Z,7.12
2023-02-02T02:39:50.581Z,7.12
2023-02-02T02:40:53.209Z,7.12
2023-02-02T02:41:55.884Z,7.12
2023-02-02T02:42:58.759Z,7.12
2023-02-02T02:44:01.460Z,7.12
2023-02-02T02:45:04.220Z,7.11
2023-02-02T02:46:07.013Z,7.11
2023-02-02T02:47:09.737Z,7.11
2023-02-02T02:48:12.572Z,7.12
2023-02-02T02:49:18.723Z,7.12
2023-02-02T02:50:21.171Z,7.13
2023-02-02T02:51:23.811Z,7.13
2023-02-02T02:52:26.651Z,7.12
2023-02-02T02:53:29.351Z,7.13
2023-02-02T02:54:32.095Z,7.13
2023-02-02T02:55:34.740Z,7.14
2023-02-02T02:56:40.919Z,7.14
2023-02-02T02:57:43.562Z,7.14
2023-02-02T02:58:46.208Z,7.15
2023-02-02T02:59:48.891Z,7.15
2023-02-02T03:00:55.118Z,7.13
2023-02-02T03:01:57.563Z,7.13
2023-02-02T03:03:00.230Z,7.13
2023-02-02T03:04:02.908Z,7.12
2023-02-02T03:05:05.575Z,7.12
2023-02-02T03:06:08.214Z,7.11
2023-02-02T03:07:10.872Z,7.09
2023-02-02T03:08:13.526Z,7.09
2023-02-02T03:09:23.759Z,7.08
2023-02-02T03:10:29.571Z,7.07
2023-02-02T03:11:31.955Z,7.07
2023-02-02T03:12:34.622Z,7.06
2023-02-02T03:13:37.261Z,7.07
2023-02-02T03:14:40.008Z,7.07
2023-02-02T03:15:43.021Z,7.08
2023-02-02T03:16:45.740Z,7.08
2023-02-02T03:17:48.417Z,7.07
2023-02-02T03:18:51.099Z,7.07
2023-02-02T03:19:53.785Z,7.06
2023-02-02T03:20:56.457Z,7.06
2023-02-02T03:21:59.099Z,7.05
2023-02-02T03:23:01.744Z,7.04
2023-02-02T03:24:04.428Z,7.05
2023-02-02T03:25:07.183Z,7.05
2023-02-02T03:26:09.857Z,7.05
2023-02-02T03:27:13.095Z,7.07
2023-02-02T03:28:15.712Z,7.06
2023-02-02T03:29:18.374Z,7.06
2023-02-02T03:30:21.376Z,7.06
2023-02-02T03:31:24.194Z,7.06
2023-02-02T03:32:27.172Z,7.07
2023-02-02T03:33:29.816Z,7.05
2023-02-02T03:34:32.499Z,7.04
2023-02-02T03:35:35.158Z,7.06
2023-02-02T03:36:37.860Z,7.07
2023-02-02T03:37:40.551Z,7.08
2023-02-02T03:38:43.190Z,7.07
2023-02-02T03:39:46.075Z,7.07
2023-02-02T03:40:52.311Z,7.08
2023-02-02T03:41:54.752Z,7.09
2023-02-02T03:42:57.356Z,7.09
2023-02-02T03:44:00.073Z,7.1
2023-02-02T03:45:02.763Z,7.1
2023-02-02T03:46:17.035Z,7.11
2023-02-02T03:47:19.336Z,7.1
2023-02-02T03:48:21.978Z,7.11
2023-02-02T03:49:24.612Z,7.1
2023-02-02T03:50:27.295Z,7.08
2023-02-02T03:51:30.548Z,7.08
2023-02-02T03:52:33.164Z,7.09
2023-02-02T03:53:35.825Z,7.1
2023-02-02T03:54:38.522Z,7.12
2023-02-02T03:55:41.199Z,7.11
2023-02-02T03:56:43.917Z,7.12
2023-02-02T03:57:46.585Z,7.11
2023-02-02T03:58:49.261Z,7.11
2023-02-02T03:59:51.898Z,7.11
2023-02-02T04:00:54.577Z,7.1
2023-02-02T04:01:57.580Z,7.11
2023-02-02T04:03:00.528Z,7.09
2023-02-02T04:04:03.307Z,7.09
2023-02-02T04:05:05.985Z,7.09
2023-02-02T04:06:08.697Z,7.09
2023-02-02T04:07:11.333Z,7.08
2023-02-02T04:08:14.028Z,7.07
2023-02-02T04:09:16.706Z,7.07
2023-02-02T04:10:19.383Z,7.05
2023-02-02T04:11:22.049Z,7.05
2023-02-02T04:12:24.754Z,7.05
2023-02-02T04:13:27.410Z,7.07
2023-02-02T04:14:30.093Z,7.07
2023-02-02T04:15:32.746Z,7.07
2023-02-02T04:16:35.649Z,7.07
2023-02-02T04:17:38.331Z,7.08
2023-02-02T04:18:40.987Z,7.07
2023-02-02T04:19:43.692Z,7.06
2023-02-02T04:20:46.359Z,7.04
2023-02-02T04:21:49.039Z,7.02
2023-02-02T04:22:51.709Z,7.02
2023-02-02T04:23:54.420Z,7.02
2023-02-02T04:24:57.078Z,7.03
2023-02-02T04:25:59.762Z,7.01
2023-02-02T04:27:02.430Z,6.99
2023-02-02T04:28:05.203Z,6.97
2023-02-02T04:29:07.887Z,6.94
2023-02-02T04:30:10.572Z,6.93
2023-02-02T04:31:13.636Z,6.94
2023-02-02T04:32:16.543Z,6.92
2023-02-02T04:33:19.189Z,6.93
2023-02-02T04:34:21.907Z,6.94
2023-02-02T04:35:25.680Z,6.96
2023-02-02T04:36:28.701Z,6.95
2023-02-02T04:37:31.348Z,6.97
2023-02-02T04:38:34.043Z,6.97
2023-02-02T04:39:36.674Z,6.98
2023-02-02T04:40:39.540Z,7
2023-02-02T04:41:42.261Z,7.01
2023-02-02T04:42:44.932Z,7
2023-02-02T04:43:47.644Z,7.01
2023-02-02T04:44:50.322Z,7.02
2023-02-02T04:45:53.136Z,7.01
2023-02-02T04:46:55.888Z,7
2023-02-02T04:47:58.674Z,6.99
2023-02-02T04:49:01.534Z,6.98
2023-02-02T04:50:04.166Z,6.99
2023-02-02T04:51:06.934Z,6.99
2023-02-02T04:52:09.568Z,6.98
2023-02-02T04:53:12.300Z,6.98
2023-02-02T04:54:15.002Z,6.99
2023-02-02T04:55:17.665Z,6.99
2023-02-02T04:56:20.572Z,7
2023-02-02T04:57:23.281Z,6.99
2023-02-02T04:58:25.966Z,7
2023-02-02T04:59:28.689Z,7.01
2023-02-02T05:00:31.400Z,7
2023-02-02T05:01:34.095Z,6.99
2023-02-02T05:02:36.779Z,6.99
2023-02-02T05:03:39.487Z,7.01
2023-02-02T05:04:45.837Z,6.98
2023-02-02T05:05:48.348Z,6.96
2023-02-02T05:06:51.177Z,6.98
2023-02-02T05:07:53.814Z,6.97
2023-02-02T05:08:56.470Z,6.98
2023-02-02T05:09:59.109Z,6.97
2023-02-02T05:11:01.751Z,6.98
2023-02-02T05:12:19.447Z,6.98
2023-02-02T05:13:21.818Z,6.99
2023-02-02T05:14:27.898Z,6.98
2023-02-02T05:15:30.359Z,7
2023-02-02T05:16:33.071Z,7
2023-02-02T05:17:58.804Z,7
2023-02-02T05:19:00.858Z,6.99
2023-02-02T05:20:03.428Z,7.01
2023-02-02T05:21:21.324Z,7.01
2023-02-02T05:22:24.499Z,7
2023-02-02T05:23:34.622Z,7.02
2023-02-02T05:24:52.420Z,7.01
2023-02-02T05:25:54.502Z,7.02
2023-02-02T05:27:01.987Z,7.02
2023-02-02T05:28:04.992Z,7.03
2023-02-02T05:29:07.598Z,7.04
2023-02-02T05:30:10.180Z,7.04
2023-02-02T05:31:13.126Z,7.05
2023-02-02T05:32:16.758Z,7.06
2023-02-02T05:33:19.587Z,7.08
2023-02-02T05:34:22.855Z,7.09
2023-02-02T05:35:32.992Z,7.08
2023-02-02T05:36:35.254Z,7.09
2023-02-02T05:37:52.945Z,7.1
2023-02-02T05:38:55.147Z,7.11
2023-02-02T05:39:57.781Z,7.1
2023-02-02T05:41:00.415Z,7.1
2023-02-02T05:42:06.603Z,7.08
2023-02-02T05:43:16.564Z,7.08
2023-02-02T05:44:19.035Z,7.06
2023-02-02T05:45:21.750Z,7.05
2023-02-02T05:46:24.643Z,7.02
2023-02-02T05:47:27.373Z,7.01
2023-02-02T05:48:29.999Z,7
2023-02-02T05:49:32.925Z,7
2023-02-02T05:50:50.587Z,6.99
2023-02-02T05:51:52.743Z,7
2023-02-02T05:53:45.285Z,6.99
2023-02-02T05:55:22.071Z,7.01
2023-02-02T05:56:43.354Z,7
2023-02-02T05:57:45.282Z,6.99
2023-02-02T05:58:47.813Z,6.99
2023-02-02T05:59:50.373Z,7.01
2023-02-02T06:00:57.019Z,7.02
2023-02-02T06:01:59.443Z,7.03
2023-02-02T06:03:02.436Z,7.04
2023-02-02T06:04:05.286Z,7.04
2023-02-02T06:05:08.023Z,7.04
2023-02-02T06:06:10.743Z,7.04
2023-02-02T06:07:13.636Z,7.04
2023-02-02T06:08:16.301Z,7.02
2023-02-02T06:09:22.558Z,7.01
2023-02-02T06:10:24.992Z,7.02
2023-02-02T06:11:27.656Z,7.02
2023-02-02T06:12:41.812Z,7.02
2023-02-02T06:13:55.618Z,7.04
2023-02-02T06:15:16.802Z,7.04
2023-02-02T06:16:18.986Z,7.05
2023-02-02T06:18:16.120Z,7.04
2023-02-02T06:19:17.899Z,7.05
2023-02-02T06:20:22.708Z,7.06
2023-02-02T06:21:25.141Z,7.05
2023-02-02T06:22:54.337Z,7.06
2023-02-02T06:23:56.296Z,7.07
2023-02-02T06:25:13.852Z,7.08
2023-02-02T06:29:43.518Z,7.01
2023-02-02T06:30:45.334Z,7.02
2023-02-02T06:33:08.490Z,7.04
2023-02-02T06:34:10.428Z,7.05
2023-02-02T06:35:12.827Z,7.06
2023-02-02T06:36:15.391Z,7.08
2023-02-02T06:37:48.543Z,7.08
2023-02-02T06:38:50.067Z,7.1
2023-02-02T06:40:04.194Z,7.11
2023-02-02T06:41:06.432Z,7.12
2023-02-02T06:42:21.498Z,7.12
2023-02-02T06:43:24.350Z,7.11
2023-02-02T06:44:26.935Z,7.11
2023-02-02T06:45:30.139Z,7.1
2023-02-02T06:46:33.222Z,7.08
2023-02-02T06:47:35.936Z,7.08
2023-02-02T06:48:38.621Z,7.09
2023-02-02T06:49:41.363Z,7.1
2023-02-02T06:50:44.124Z,7.1
2023-02-02T06:51:46.852Z,7.09
2023-02-02T06:52:49.539Z,7.09
2023-02-02T06:54:04.789Z,7.09
2023-02-02T06:55:07.074Z,7.09
2023-02-02T06:56:09.779Z,7.09
2023-02-02T06:57:12.398Z,7.06
2023-02-02T06:58:15.058Z,7.05
2023-02-02T06:59:17.710Z,7.05
2023-02-02T07:00:20.950Z,7.04
2023-02-02T07:01:23.811Z,7.05
2023-02-02T07:02:26.721Z,7.05
2023-02-02T07:03:29.383Z,7.06
2023-02-02T07:04:32.056Z,7.07
2023-02-02T07:05:34.834Z,7.07
2023-02-02T07:06:37.506Z,7.08
2023-02-02T07:07:40.172Z,7.09
2023-02-02T07:08:42.859Z,7.08
2023-02-02T07:09:45.595Z,7.08
2023-02-02T07:11:08.502Z,7.08
2023-02-02T07:12:10.120Z,7.09
2023-02-02T07:13:12.793Z,7.08
2023-02-02T07:14:15.410Z,7.08
2023-02-02T07:15:18.081Z,7.07
2023-02-02T07:16:20.868Z,7.04
2023-02-02T07:17:23.636Z,7.01
2023-02-02T07:18:26.297Z,7
2023-02-02T07:19:29.246Z,6.98
2023-02-02T07:20:31.968Z,6.99
2023-02-02T07:21:34.709Z,6.99
2023-02-02T07:22:37.982Z,7.01
2023-02-02T07:23:40.622Z,7.03
2023-02-02T07:25:03.300Z,7.04
2023-02-02T07:26:05.433Z,7.03
2023-02-02T07:27:08.098Z,7
2023-02-02T07:28:10.820Z,7
2023-02-02T07:29:13.461Z,7.01
2023-02-02T07:30:16.401Z,7.03
2023-02-02T07:31:19.322Z,7.05
2023-02-02T07:32:22.149Z,7.04
2023-02-02T07:33:24.796Z,7.05
2023-02-02T07:34:27.423Z,7.06
2023-02-02T07:35:30.174Z,7.06
2023-02-02T07:36:32.930Z,7.08
2023-02-02T07:37:35.630Z,7.06
2023-02-02T07:38:38.307Z,7.08
2023-02-02T07:39:40.971Z,7.07
2023-02-02T07:40:43.644Z,7.06
2023-02-02T07:41:47.307Z,7.09
2023-02-02T07:42:49.840Z,7.11
2023-02-02T07:43:52.649Z,7.12
2023-02-02T07:44:55.293Z,7.13
2023-02-02T07:45:57.984Z,7.14
2023-02-02T07:47:00.719Z,7.14
2023-02-02T07:48:03.420Z,7.17
2023-02-02T07:49:06.124Z,7.19
2023-02-02T07:50:08.788Z,7.21
2023-02-02T07:51:11.517Z,7.23
2023-02-02T07:52:14.268Z,7.24
2023-02-02T07:53:16.998Z,7.26
2023-02-02T07:54:19.908Z,7.26
2023-02-02T07:55:22.673Z,7.28
2023-02-02T07:56:25.342Z,7.28
2023-02-02T07:57:28.026Z,7.3
2023-02-02T07:58:30.745Z,7.3
2023-02-02T07:59:33.498Z,7.3
2023-02-02T08:00:36.296Z,7.31
2023-02-02T08:01:39.188Z,7.3
2023-02-02T08:02:41.945Z,7.3
2023-02-02T08:03:44.719Z,7.31
2023-02-02T08:04:47.465Z,7.31
2023-02-02T08:05:50.169Z,7.31
2023-02-02T08:06:52.849Z,7.32
2023-02-02T08:07:55.517Z,7.34
2023-02-02T08:08:58.277Z,7.34
2023-02-02T08:10:00.950Z,7.35
2023-02-02T08:11:03.666Z,7.37
2023-02-02T08:12:06.388Z,7.37
2023-02-02T08:13:09.291Z,7.38
2023-02-02T08:14:12.029Z,7.4
2023-02-02T08:15:14.758Z,7.4
2023-02-02T08:16:17.576Z,7.4
2023-02-02T08:17:20.402Z,7.43
2023-02-02T08:18:23.113Z,7.45
2023-02-02T08:19:25.749Z,7.45
2023-02-02T08:20:28.425Z,7.46
2023-02-02T08:21:31.071Z,7.49
2023-02-02T08:22:33.736Z,7.53
2023-02-02T08:23:36.460Z,7.52
2023-02-02T08:24:39.162Z,7.54
2023-02-02T08:25:41.875Z,7.53
2023-02-02T08:26:44.739Z,7.54
2023-02-02T08:27:47.744Z,7.56
2023-02-02T08:28:50.503Z,7.56
2023-02-02T08:29:53.182Z,7.58
2023-02-02T08:30:56.185Z,7.59
2023-02-02T08:31:59.237Z,7.61
2023-02-02T08:33:02.053Z,7.62
2023-02-02T08:34:04.787Z,7.61
2023-02-02T08:35:07.501Z,7.62
2023-02-02T08:36:10.112Z,7.63
2023-02-02T08:37:12.800Z,7.65
2023-02-02T08:38:15.479Z,7.67
2023-02-02T08:39:18.551Z,7.68
2023-02-02T08:40:21.601Z,7.69
2023-02-02T08:41:24.651Z,7.69
2023-02-02T08:42:27.321Z,7.71
2023-02-02T08:43:30.022Z,7.71
2023-02-02T08:44:59.706Z,7.71
2023-02-02T08:46:05.909Z,7.74
2023-02-02T08:47:09.104Z,7.74
2023-02-02T08:48:13.180Z,7.77
2023-02-02T08:49:15.710Z,7.78
2023-02-02T08:50:18.383Z,7.78
2023-02-02T08:51:21.070Z,7.79
2023-02-02T08:52:26.101Z,7.79
2023-02-02T08:53:28.563Z,7.81
2023-02-02T08:54:31.259Z,7.81
2023-02-02T08:55:33.973Z,7.81
2023-02-02T08:56:36.676Z,7.79
2023-02-02T08:57:39.346Z,7.82
2023-02-02T08:58:42.053Z,7.82
2023-02-02T08:59:44.897Z,7.84
2023-02-02T09:00:47.811Z,7.85
2023-02-02T09:01:50.724Z,7.87
2023-02-02T09:02:53.496Z,7.88
2023-02-02T09:03:56.162Z,7.89
2023-02-02T09:04:58.850Z,7.89
2023-02-02T09:06:01.540Z,7.91
2023-02-02T09:07:04.249Z,7.94
2023-02-02T09:08:06.892Z,7.97
2023-02-02T09:09:09.624Z,7.97
2023-02-02T09:10:12.342Z,7.96
2023-02-02T09:11:15.070Z,7.96
2023-02-02T09:12:17.778Z,7.95
2023-02-02T09:13:23.525Z,7.96
2023-02-02T09:14:25.932Z,7.97
2023-02-02T09:15:28.583Z,7.99
2023-02-02T09:16:31.508Z,7.98
2023-02-02T09:17:34.518Z,7.98
2023-02-02T09:18:37.250Z,7.96
2023-02-02T09:19:39.945Z,7.96
2023-02-02T09:20:42.586Z,7.96
2023-02-02T09:21:45.249Z,7.96
2023-02-02T09:22:47.932Z,7.95
2023-02-02T09:23:50.657Z,7.96
2023-02-02T09:24:53.301Z,7.97
2023-02-02T09:25:56.536Z,7.98
2023-02-02T09:26:59.427Z,7.98
2023-02-02T09:28:02.767Z,7.99
2023-02-02T09:29:05.389Z,8
2023-02-02T09:30:08.104Z,8.01
2023-02-02T09:31:11.527Z,8.03
2023-02-02T09:32:14.649Z,8.04
2023-02-02T09:33:17.502Z,8.05
2023-02-02T09:34:20.195Z,8.06
2023-02-02T09:35:24.306Z,8.05
2023-02-02T09:36:27.880Z,8.05
2023-02-02T09:37:30.512Z,8.03
2023-02-02T09:38:33.226Z,8
2023-02-02T09:39:35.859Z,7.99
2023-02-02T09:40:38.569Z,7.97
2023-02-02T09:41:41.448Z,8
2023-02-02T09:42:44.177Z,8
2023-02-02T09:43:46.878Z,8
2023-02-02T09:44:49.595Z,8
2023-02-02T09:45:52.398Z,8
2023-02-02T09:46:55.121Z,8
2023-02-02T09:47:57.791Z,7.99
2023-02-02T09:49:00.495Z,7.99
2023-02-02T09:50:03.207Z,8
2023-02-02T09:51:05.866Z,8.01
2023-02-02T09:52:08.542Z,8.01
2023-02-02T09:53:11.236Z,7.99
2023-02-02T09:54:13.903Z,8.01
2023-02-02T09:55:16.639Z,8.01
2023-02-02T09:56:19.325Z,8.03
2023-02-02T09:57:22.024Z,8.03
2023-02-02T09:58:24.987Z,8.04
2023-02-02T09:59:27.669Z,8.06
2023-02-02T10:00:30.419Z,8.08
2023-02-02T10:01:33.251Z,8.1
2023-02-02T10:02:35.950Z,8.12
2023-02-02T10:03:38.732Z,8.14
2023-02-02T10:04:42.565Z,8.14
2023-02-02T10:05:45.257Z,8.16
2023-02-02T10:06:47.938Z,8.16
2023-02-02T10:07:50.642Z,8.16
2023-02-02T10:08:53.324Z,8.18
2023-02-02T10:09:56.036Z,8.19
2023-02-02T10:10:58.758Z,8.2
2023-02-02T10:12:01.513Z,8.21
2023-02-02T10:13:04.245Z,8.22
2023-02-02T10:14:07.028Z,8.25
2023-02-02T10:15:09.841Z,8.23
2023-02-02T10:16:12.788Z,8.22
2023-02-02T10:17:15.541Z,8.22
2023-02-02T10:18:18.462Z,8.25
2023-02-02T10:19:21.746Z,8.25
2023-02-02T10:20:26.669Z,8.27
2023-02-02T10:21:29.866Z,8.27
2023-02-02T10:22:32.497Z,8.28
2023-02-02T10:23:35.454Z,8.28
2023-02-02T10:24:38.106Z,8.3
2023-02-02T10:25:40.816Z,8.3
2023-02-02T10:26:43.691Z,8.3
2023-02-02T10:27:46.718Z,8.29
2023-02-02T10:28:49.365Z,8.3
2023-02-02T10:29:52.082Z,8.31
2023-02-02T10:30:55.009Z,8.32
2023-02-02T10:31:58.337Z,8.33
2023-02-02T10:33:01.805Z,8.35
2023-02-02T10:34:04.364Z,8.37
2023-02-02T10:35:15.105Z,8.35
2023-02-02T10:36:17.529Z,8.37
2023-02-02T10:37:20.252Z,8.37
2023-02-02T10:38:23.916Z,8.4
2023-02-02T10:39:26.674Z,8.39
2023-02-02T10:40:29.362Z,8.39
2023-02-02T10:41:32.057Z,8.41
2023-02-02T10:42:34.758Z,8.43
2023-02-02T10:43:37.447Z,8.44
2023-02-02T10:44:40.733Z,8.44
2023-02-02T10:45:43.427Z,8.44
2023-02-02T10:46:46.710Z,8.45
2023-02-02T10:47:49.387Z,8.43
2023-02-02T10:48:52.107Z,8.44
2023-02-02T10:49:56.620Z,8.44
2023-02-02T10:50:59.174Z,8.45
2023-02-02T10:52:01.911Z,8.48
2023-02-02T10:53:04.715Z,8.5
2023-02-02T10:54:07.343Z,8.51
2023-02-02T10:55:10.068Z,8.52
2023-02-02T10:56:12.819Z,8.53
2023-02-02T10:57:15.463Z,8.54
2023-02-02T10:58:18.160Z,8.54
2023-02-02T10:59:20.889Z,8.56
2023-02-02T11:00:25.656Z,8.58
2023-02-02T11:01:29.002Z,8.58
2023-02-02T11:02:31.879Z,8.57
2023-02-02T11:03:34.790Z,8.57
2023-02-02T11:04:37.482Z,8.57
2023-02-02T11:05:40.729Z,8.58
2023-02-02T11:06:43.365Z,8.57
2023-02-02T11:07:46.079Z,8.58
2023-02-02T11:08:48.820Z,8.58
2023-02-02T11:09:51.787Z,8.59
2023-02-02T11:10:54.900Z,8.59
2023-02-02T11:11:57.938Z,8.59
2023-02-02T11:13:02.390Z,8.6
2023-02-02T11:14:04.953Z,8.6
2023-02-02T11:15:07.673Z,8.62
2023-02-02T11:16:10.708Z,8.64
2023-02-02T11:17:13.666Z,8.65
2023-02-02T11:18:16.351Z,8.65
2023-02-02T11:19:19.115Z,8.66
2023-02-02T11:20:22.263Z,8.66
2023-02-02T11:21:25.128Z,8.67
2023-02-02T11:22:27.789Z,8.69
2023-02-02T11:23:30.485Z,8.7
2023-02-02T11:24:43.216Z,8.71
2023-02-02T11:25:45.482Z,8.73
2023-02-02T11:26:48.379Z,8.72
2023-02-02T11:27:51.147Z,8.75
2023-02-02T11:28:53.954Z,8.76
2023-02-02T11:29:56.934Z,8.77
2023-02-02T11:31:00.245Z,8.77
2023-02-02T11:32:03.339Z,8.76
2023-02-02T11:33:06.140Z,8.76
2023-02-02T11:34:08.810Z,8.78
2023-02-02T11:35:11.478Z,8.82
2023-02-02T11:36:14.223Z,8.85
2023-02-02T11:37:16.920Z,8.86
2023-02-02T11:38:19.837Z,8.88
2023-02-02T11:39:22.548Z,8.91
2023-02-02T11:40:26.343Z,8.92
2023-02-02T11:41:29.485Z,8.93
2023-02-02T11:42:32.163Z,8.94
2023-02-02T11:43:34.853Z,8.95
2023-02-02T11:44:37.539Z,8.92
2023-02-02T11:45:40.183Z,8.93
2023-02-02T11:46:42.949Z,8.94
2023-02-02T11:47:45.693Z,8.95
2023-02-02T11:48:48.462Z,8.96
2023-02-02T11:49:53.067Z,8.96
2023-02-02T11:50:56.894Z,8.97
2023-02-02T11:51:59.594Z,8.96
2023-02-02T11:53:02.470Z,8.98
2023-02-02T11:54:05.198Z,9.01
2023-02-02T11:55:07.916Z,9.03
2023-02-02T11:56:10.637Z,9.05
2023-02-02T11:57:13.276Z,9.06
2023-02-02T11:58:15.909Z,9.07
2023-02-02T11:59:18.625Z,9.07
2023-02-02T12:00:21.314Z,9.08
2023-02-02T12:01:24.025Z,9.08
2023-02-02T12:02:26.776Z,9.1
2023-02-02T12:03:29.491Z,9.11
2023-02-02T12:04:32.984Z,9.11
2023-02-02T12:05:35.705Z,9.09
2023-02-02T12:06:38.461Z,9.1
2023-02-02T12:07:41.230Z,9.08
2023-02-02T12:08:43.938Z,9.06
2023-02-02T12:09:46.623Z,9.05
2023-02-02T12:10:49.393Z,9.04
2023-02-02T12:11:52.114Z,9.03
2023-02-02T12:12:55.801Z,9.03
2023-02-02T12:13:58.374Z,9.03
2023-02-02T12:15:01.117Z,9.05
2023-02-02T12:16:03.946Z,9.03
2023-02-02T12:17:06.736Z,9.03
2023-02-02T12:18:09.519Z,9.05
2023-02-02T12:19:12.168Z,9.07
2023-02-02T12:20:14.947Z,9.06
2023-02-02T12:21:17.615Z,9.06
2023-02-02T12:22:20.355Z,9.1
2023-02-02T12:23:23.773Z,9.12
2023-02-02T12:24:26.602Z,9.15
2023-02-02T12:25:29.346Z,9.15
2023-02-02T12:26:32.463Z,9.16
2023-02-02T12:27:35.188Z,9.19
2023-02-02T12:28:37.802Z,9.22
2023-02-02T12:29:40.512Z,9.25
2023-02-02T12:30:43.307Z,9.28
2023-02-02T12:31:46.209Z,9.3
2023-02-02T12:32:49.027Z,9.3
2023-02-02T12:33:51.697Z,9.3
2023-02-02T12:34:54.391Z,9.29
2023-02-02T12:35:57.239Z,9.3
2023-02-02T12:37:00.197Z,9.33
2023-02-02T12:38:02.962Z,9.33
2023-02-02T12:39:05.659Z,9.34
2023-02-02T12:40:11.781Z,9.34
2023-02-02T12:41:14.244Z,9.37
2023-02-02T12:42:16.991Z,9.38
2023-02-02T12:43:20.675Z,9.41
2023-02-02T12:44:23.288Z,9.41
2023-02-02T12:45:26.223Z,9.42
2023-02-02T12:46:29.030Z,9.41
2023-02-02T12:47:31.752Z,9.4
2023-02-02T12:48:34.862Z,9.4
2023-02-02T12:49:37.709Z,9.41
2023-02-02T12:50:40.411Z,9.39
2023-02-02T12:51:43.113Z,9.38
2023-02-02T12:52:45.806Z,9.35
2023-02-02T12:54:32.482Z,9.32
2023-02-02T12:55:10.405Z,9.31
2023-02-02T12:56:13.057Z,9.3
2023-02-02T12:57:15.909Z,9.29
2023-02-02T12:58:18.569Z,9.29
2023-02-02T12:59:21.262Z,9.3
2023-02-02T13:00:25.114Z,9.29
2023-02-02T13:01:28.450Z,9.27
2023-02-02T13:02:31.313Z,9.26
2023-02-02T13:03:33.992Z,9.23
2023-02-02T13:04:36.685Z,9.19
2023-02-02T13:05:39.367Z,9.16
2023-02-02T13:06:42.036Z,9.12
2023-02-02T13:07:44.732Z,9.1
2023-02-02T13:08:47.370Z,9.08
2023-02-02T13:09:50.034Z,9.07
2023-02-02T13:10:52.723Z,9.06
2023-02-02T13:11:55.348Z,9.05
2023-02-02T13:12:58.033Z,9.06
2023-02-02T13:14:00.696Z,9.07
2023-02-02T13:15:03.400Z,9.07
2023-02-02T13:16:06.029Z,9.07
2023-02-02T13:17:08.730Z,9.08
2023-02-02T13:18:12.011Z,9.1
2023-02-02T13:19:14.597Z,9.11
2023-02-02T13:20:17.279Z,9.12
2023-02-02T13:21:19.978Z,9.12
2023-02-02T13:22:22.647Z,9.11
2023-02-02T13:23:28.208Z,9.11
2023-02-02T13:24:30.775Z,9.12
2023-02-02T13:25:33.507Z,9.13
2023-02-02T13:26:36.640Z,9.13
2023-02-02T13:27:39.481Z,9.14
2023-02-02T13:28:42.187Z,9.15
2023-02-02T13:29:48.913Z,9.15
2023-02-02T13:30:51.588Z,9.14
2023-02-02T13:31:54.503Z,9.14
2023-02-02T13:32:57.270Z,9.12
2023-02-02T13:34:00.095Z,9.11
2023-02-02T13:35:02.744Z,9.11
2023-02-02T13:36:05.461Z,9.11
2023-02-02T13:37:08.176Z,9.09
2023-02-02T13:38:10.842Z,9.09
2023-02-02T13:39:13.627Z,9.11
2023-02-02T13:40:16.271Z,9.11
2023-02-02T13:41:19.179Z,9.1
2023-02-02T13:42:21.833Z,9.09
2023-02-02T13:43:24.791Z,9.08
2023-02-02T13:44:27.427Z,9.08
2023-02-02T13:45:30.707Z,9.05
2023-02-02T13:46:33.374Z,9.05
2023-02-02T13:47:36.074Z,9.07
2023-02-02T13:48:38.794Z,9.08
2023-02-02T13:49:41.436Z,9.08
2023-02-02T13:50:44.081Z,9.08
2023-02-02T13:51:46.871Z,9.08
2023-02-02T13:52:49.532Z,9.08
2023-02-02T13:53:52.466Z,9.07
2023-02-02T13:54:55.306Z,9.07
2023-02-02T13:55:58.041Z,9.07
2023-02-02T13:57:00.757Z,9.07
2023-02-02T13:58:03.390Z,9.07
2023-02-02T13:59:06.120Z,9.06
2023-02-02T14:00:08.807Z,9.07
2023-02-02T14:01:11.685Z,9.07
2023-02-02T14:02:14.633Z,9.07
2023-02-02T14:03:17.319Z,9.07
2023-02-02T14:04:29.978Z,9.09
2023-02-02T14:05:32.196Z,9.1
2023-02-02T14:06:35.443Z,9.11
2023-02-02T14:07:42.102Z,9.09
2023-02-02T14:08:44.487Z,9.09
2023-02-02T14:09:47.173Z,9.07
2023-02-02T14:10:49.947Z,9.06
2023-02-02T14:11:52.592Z,9.06
2023-02-02T14:12:55.218Z,9.06
2023-02-02T14:13:57.961Z,9.06
2023-02-02T14:15:00.682Z,9.07
2023-02-02T14:16:03.623Z,9.07
2023-02-02T14:17:06.378Z,9.1
2023-02-02T14:18:09.049Z,9.11
2023-02-02T14:19:11.701Z,9.12